Time;durP1;ratioP1;P1;durP2;ratioP2;P2;SDS_P1;SDS_P2;PMS_P1;PMS_P2;Temp;Humidity;BMP_temperature;BMP_pressure;BME280_temperature;BME280_humidity;BME280_pressure;Samples;Min_cycle;Max_cycle;Signal;HPM_P1;HPM_P2
2022/12/29 00:00:28;;;;;;;;;;;;;;;-1.59;100.00;101086.31;5567138;32;34509;-67
2022/12/29 00:03:38;;;;;;;;;;;;;;;-1.59;100.00;101088.06;5567039;32;34540;-67
2022/12/29 00:06:45;;;;;;;;;;;;;;;-1.59;100.00;101088.06;5566672;31;32809;-66
2022/12/29 00:09:50;;;;;;;;;;;;;;;-1.64;100.00;101093.50;5553417;32;34749;-65
2022/12/29 00:16:25;;;;;;;;;;;;;;;-1.68;100.00;101104.97;5566993;32;33615;-66
2022/12/29 00:36:53;;;;;;;;;;;;;;;-1.75;100.00;101074.97;5569152;32;34377;-66
2022/12/29 00:46:48;;;;;;;;;;;;;;;-1.76;100.00;101081.09;5568822;32;34757;-66
2022/12/29 00:49:56;;;;;;;;;;;;;;;-1.77;100.00;101076.78;5555647;32;34713;-66
2022/12/29 00:53:00;;;;;;;;;;;;;;;-1.81;100.00;101076.09;5554925;32;35669;-66
2022/12/29 00:56:04;;;;;;;;;;;;;;;-1.83;100.00;101083.12;5555132;32;33898;-67
2022/12/29 00:59:10;;;;;;;;;;;;;;;-1.84;100.00;101081.44;5568833;32;35168;-66
2022/12/29 01:02:14;;;;;;;;;;;;;;;-1.89;100.00;101083.41;5568832;32;34169;-66
2022/12/29 01:05:19;;;;;;;;;;;;;;;-1.87;100.00;101081.56;5541832;32;34619;-66
2022/12/29 01:08:29;;;;;;;;;;;;;;;-1.88;100.00;101081.63;5555145;32;34549;-66
2022/12/29 01:11:33;;;;;;;;;;;;;;;-1.95;100.00;101078.50;5554742;32;33535;-66
2022/12/29 01:14:43;;;;;;;;;;;;;;;-1.94;100.00;101081.94;5555823;32;34772;-66
2022/12/29 01:17:49;;;;;;;;;;;;;;;-1.91;100.00;101076.59;5568712;32;34353;-68
2022/12/29 01:21:01;;;;;;;;;;;;;;;-1.91;100.00;101077.44;5568783;32;34159;-67
2022/12/29 01:24:07;;;;;;;;;;;;;;;-1.95;100.00;101085.47;5568740;32;34741;-68
2022/12/29 01:27:17;;;;;;;;;;;;;;;-1.99;100.00;101076.12;5568652;32;34305;-68
2022/12/29 01:30:23;;;;;;;;;;;;;;;-2.02;100.00;101079.69;5554869;32;33379;-68
2022/12/29 01:33:30;;;;;;;;;;;;;;;-2.03;100.00;101080.59;5568530;32;34257;-68
2022/12/29 01:36:37;;;;;;;;;;;;;;;-2.00;100.00;101077.03;5567997;32;35387;-68
2022/12/29 01:39:47;;;;;;;;;;;;;;;-2.02;100.00;101074.50;5568943;32;33978;-67
2022/12/29 01:42:54;;;;;;;;;;;;;;;-2.04;100.00;101075.50;5555197;32;33676;-69
2022/12/29 01:46:01;;;;;;;;;;;;;;;-2.03;100.00;101079.78;5555113;32;33862;-68
2022/12/29 01:49:12;;;;;;;;;;;;;;;-2.04;100.00;101078.09;5568498;32;34332;-68
2022/12/29 01:52:20;;;;;;;;;;;;;;;-2.03;100.00;101062.41;5568541;32;34259;-68
2022/12/29 01:55:29;;;;;;;;;;;;;;;-1.99;100.00;101069.16;5568362;32;33968;-68
2022/12/29 01:58:37;;;;;;;;;;;;;;;-2.03;100.00;101070.19;5541702;32;33388;-68
2022/12/29 02:01:43;;;;;;;;;;;;;;;-1.96;100.00;101063.81;5554792;32;34646;-67
2022/12/29 02:04:53;;;;;;;;;;;;;;;-1.96;100.00;101058.62;5555013;32;34099;-66
2022/12/29 02:08:05;;;;;;;;;;;;;;;-1.98;100.00;101057.84;5567974;32;34300;-67
2022/12/29 02:11:13;;;;;;;;;;;;;;;-1.98;100.00;101055.22;5568287;32;34343;-66
2022/12/29 02:14:20;;;;;;;;;;;;;;;-1.98;100.00;101046.59;5568193;32;34271;-67
2022/12/29 02:17:38;;;;;;;;;;;;;;;-1.97;100.00;101041.31;5554871;32;34277;-67
2022/12/29 02:20:55;;;;;;;;;;;;;;;-1.91;100.00;101054.03;5568209;32;34522;-67
2022/12/29 02:24:08;;;;;;;;;;;;;;;-1.92;100.00;101051.50;5554733;32;34522;-68
2022/12/29 02:27:15;;;;;;;;;;;;;;;-1.91;100.00;101048.84;5568142;32;33919;-67
2022/12/29 02:30:43;;;;;;;;;;;;;;;-1.90;100.00;101055.72;5568317;32;33861;-67
2022/12/29 02:34:13;;;;;;;;;;;;;;;-1.92;100.00;101044.53;5568283;32;34304;-68
2022/12/29 02:37:26;;;;;;;;;;;;;;;-1.86;100.00;101046.03;5568065;32;34657;-67
2022/12/29 02:40:54;;;;;;;;;;;;;;;-1.87;100.00;101036.53;5568043;32;34151;-67
2022/12/29 02:44:17;;;;;;;;;;;;;;;-1.90;100.00;101037.53;5541980;32;33604;-67
2022/12/29 02:47:35;;;;;;;;;;;;;;;-1.90;100.00;101028.88;5553622;32;34626;-67
2022/12/29 02:50:49;;;;;;;;;;;;;;;-1.94;100.00;101038.59;5553730;32;33098;-67
2022/12/29 02:57:25;;;;;;;;;;;;;;;-2.01;100.00;101025.94;5567978;32;34840;-68
2022/12/29 03:00:33;;;;;;;;;;;;;;;-2.02;100.00;101026.84;5554584;32;34168;-67
2022/12/29 03:03:45;;;;;;;;;;;;;;;-2.04;100.00;101029.53;5554514;32;34874;-67
2022/12/29 03:06:52;;;;;;;;;;;;;;;-2.00;100.00;101020.69;5567754;32;34629;-67
2022/12/29 03:09:58;;;;;;;;;;;;;;;-2.04;100.00;101026.09;5567912;32;34594;-67
2022/12/29 03:16:41;;;;;;;;;;;;;;;-2.09;100.00;101012.47;5567899;32;34710;-68
2022/12/29 03:19:49;;;;;;;;;;;;;;;-2.18;100.00;101008.56;5567879;32;34034;-67
2022/12/29 03:23:00;;;;;;;;;;;;;;;-2.22;100.00;101013.03;5567806;32;34527;-67
2022/12/29 03:26:11;;;;;;;;;;;;;;;-2.21;100.00;101019.91;5554658;32;34095;-67
2022/12/29 03:29:20;;;;;;;;;;;;;;;-2.19;100.00;101004.25;5553843;32;33690;-68
2022/12/29 03:32:34;;;;;;;;;;;;;;;-2.17;100.00;101011.97;5554436;32;34298;-67
2022/12/29 03:35:43;;;;;;;;;;;;;;;-2.18;100.00;101008.56;5554128;32;34010;-68
2022/12/29 03:38:57;;;;;;;;;;;;;;;-2.18;100.00;100989.50;5567464;32;34141;-67
2022/12/29 03:42:05;;;;;;;;;;;;;;;-2.18;100.00;100992.97;5553510;32;33355;-67
2022/12/29 03:45:13;;;;;;;;;;;;;;;-2.23;100.00;100997.53;5567469;32;34176;-68
2022/12/29 03:48:23;;;;;;;;;;;;;;;-2.22;100.00;100997.44;5567555;32;34174;-68
2022/12/29 03:51:32;;;;;;;;;;;;;;;-2.28;100.00;100999.50;5567438;32;34098;-68
2022/12/29 03:54:44;;;;;;;;;;;;;;;-2.29;100.00;100990.84;5553071;32;33828;-69
2022/12/29 03:57:54;;;;;;;;;;;;;;;-2.33;100.00;101004.91;5566910;32;34280;-69
2022/12/29 04:01:05;;;;;;;;;;;;;;;-2.28;100.00;100992.53;5554128;32;34823;-68
2022/12/29 04:04:13;;;;;;;;;;;;;;;-2.31;100.00;101003.06;5567312;32;34240;-68
2022/12/29 04:07:23;;;;;;;;;;;;;;;-2.32;100.00;101000.53;5518295;32;1548226;-69
2022/12/29 04:10:31;;;;;;;;;;;;;;;-2.04;100.00;101007.91;5567019;32;35296;-69
2022/12/29 04:13:40;;;;;;;;;;;;;;;-1.96;100.00;101006.63;5567193;32;34248;-69
2022/12/29 04:16:50;;;;;;;;;;;;;;;-1.95;100.00;101000.50;5554245;32;34392;-68
2022/12/29 04:20:59;;;;;;;;;;;;;;;-1.75;100.00;100994.34;5566980;32;34831;-68
2022/12/29 04:23:24;;;;;;;;;;;;;;;-2.04;100.00;101003.53;5566763;32;33767;-69
2022/12/29 04:26:33;;;;;;;;;;;;;;;-2.14;100.00;101002.28;5566864;32;34814;-66
2022/12/29 04:29:43;;;;;;;;;;;;;;;-2.18;100.00;101003.34;5566834;32;34582;-69
2022/12/29 04:32:55;;;;;;;;;;;;;;;-2.17;100.00;101007.63;5566667;32;34190;-68
2022/12/29 04:36:01;;;;;;;;;;;;;;;-2.17;100.00;101001.56;5553335;32;34575;-68
2022/12/29 04:39:08;;;;;;;;;;;;;;;-2.16;100.00;101013.66;5553104;32;34287;-68
2022/12/29 04:42:16;;;;;;;;;;;;;;;-2.14;100.00;101002.28;5566890;32;34257;-68
2022/12/29 04:45:23;;;;;;;;;;;;;;;-2.12;100.00;101000.44;5566431;32;34685;-67
2022/12/29 04:48:34;;;;;;;;;;;;;;;-2.05;100.00;101003.59;5566410;32;33025;-69
2022/12/29 04:51:41;;;;;;;;;;;;;;;-2.01;100.00;100994.75;5566381;32;34765;-69
2022/12/29 04:54:49;;;;;;;;;;;;;;;-2.00;100.00;100992.09;5566277;32;34863;-68
2022/12/29 04:57:56;;;;;;;;;;;;;;;-1.99;100.00;100995.53;5566179;32;34600;-68
2022/12/29 05:01:05;;;;;;;;;;;;;;;-1.97;100.00;101004.06;5553143;32;35215;-68
2022/12/29 05:04:12;;;;;;;;;;;;;;;-1.97;100.00;101011.88;5552593;32;34859;-69
2022/12/29 05:07:21;;;;;;;;;;;;;;;-1.88;100.00;101017.47;5565895;32;34579;-69
2022/12/29 05:10:28;;;;;;;;;;;;;;;-1.86;100.00;101004.41;5552439;32;32744;-68
2022/12/29 05:13:38;;;;;;;;;;;;;;;-1.76;100.00;101018.66;5568961;32;34376;-69
2022/12/29 05:16:45;;;;;;;;;;;;;;;-1.73;100.00;101015.06;5555380;32;34145;-69
2022/12/29 05:19:55;;;;;;;;;;;;;;;-1.69;100.00;101006.22;5568769;32;34823;-69
2022/12/29 05:23:03;;;;;;;;;;;;;;;-1.49;100.00;101004.28;5555350;32;34705;-68
2022/12/29 05:26:09;;;;;;;;;;;;;;;-1.47;100.00;101006.81;5555275;32;34771;-69
2022/12/29 05:29:15;;;;;;;;;;;;;;;-1.37;100.00;101002.84;5568703;32;34255;-69
2022/12/29 05:32:21;;;;;;;;;;;;;;;-1.62;100.00;101002.38;5568664;32;33860;-69
2022/12/29 05:35:32;;;;;;;;;;;;;;;-1.45;100.00;100997.16;5555862;32;34173;-69
2022/12/29 05:38:41;;;;;;;;;;;;;;;-1.58;100.00;100998.69;5568648;32;34544;-69
2022/12/29 05:41:50;;;;;;;;;;;;;;;-1.69;100.00;101006.22;5568647;32;34295;-69
2022/12/29 05:44:56;;;;;;;;;;;;;;;-1.72;100.00;100995.94;5568206;32;35450;-68
2022/12/29 05:48:04;;;;;;;;;;;;;;;-1.79;100.00;100995.38;5555324;32;34313;-70
2022/12/29 05:51:11;;;;;;;;;;;;;;;-1.91;100.00;100994.25;5555180;32;34419;-67
2022/12/29 05:54:19;;;;;;;;;;;;;;;-1.98;100.00;100985.03;5568442;32;34175;-67
2022/12/29 05:57:28;;;;;;;;;;;;;;;-2.07;100.00;100995.88;5555157;32;34208;-67
2022/12/29 06:00:36;;;;;;;;;;;;;;;-2.01;100.00;100981.75;5568164;32;34940;-69
2022/12/29 06:03:44;;;;;;;;;;;;;;;-2.02;100.00;100986.09;5568390;32;33275;-67
2022/12/29 06:06:53;;;;;;;;;;;;;;;-1.85;100.00;100983.53;5568073;32;33998;-67
2022/12/29 06:10:05;;;;;;;;;;;;;;;-1.91;100.00;100980.38;5555549;32;33812;-67
2022/12/29 06:13:12;;;;;;;;;;;;;;;-1.99;100.00;100985.97;5568226;32;34298;-69
2022/12/29 06:16:20;;;;;;;;;;;;;;;-2.07;100.00;100982.87;5568054;32;34312;-68
2022/12/29 06:19:28;;;;;;;;;;;;;;;-1.98;100.00;100981.59;5553704;32;32890;-69
2022/12/29 06:22:37;;;;;;;;;;;;;;;-2.04;100.00;100989.69;5567975;32;34866;-67
2022/12/29 06:25:43;;;;;;;;;;;;;;;-2.12;100.00;100989.19;5566509;32;34197;-68
2022/12/29 06:28:52;;;;;;;;;;;;;;;-1.84;100.00;100982.59;5568105;32;34440;-68
2022/12/29 06:32:00;;;;;;;;;;;;;;;-1.94;100.00;100989.19;5567276;32;34302;-69
2022/12/29 06:35:07;;;;;;;;;;;;;;;-1.90;100.00;100989.87;5554805;32;35110;-68
2022/12/29 06:38:14;;;;;;;;;;;;;;;-1.86;100.00;101000.06;5568208;32;34686;-68
2022/12/29 06:41:22;;;;;;;;;;;;;;;-1.84;100.00;100995.59;5567936;32;34785;-69
2022/12/29 06:44:36;;;;;;;;;;;;;;;-1.80;100.00;100991.97;5568022;32;34327;-69
2022/12/29 06:47:45;;;;;;;;;;;;;;;-1.84;100.00;100984.38;5567983;32;34758;-69
2022/12/29 06:50:51;;;;;;;;;;;;;;;-1.80;100.00;100996.31;5567620;32;34384;-68
2022/12/29 06:53:59;;;;;;;;;;;;;;;-1.69;100.00;100994.03;5567989;32;34857;-68
2022/12/29 06:57:07;;;;;;;;;;;;;;;-1.86;100.00;101000.06;5567734;32;34041;-69
2022/12/29 07:00:14;;;;;;;;;;;;;;;-1.83;100.00;101012.06;5567755;32;34566;-69
2022/12/29 07:03:27;;;;;;;;;;;;;;;-1.85;100.00;101017.34;5555050;32;34828;-68
2022/12/29 07:06:34;;;;;;;;;;;;;;;-1.82;100.00;101009.38;5553700;32;35905;-69
2022/12/29 07:09:42;;;;;;;;;;;;;;;-1.78;100.00;101010.06;5553882;32;34326;-69
2022/12/29 07:12:52;;;;;;;;;;;;;;;-1.71;100.00;101018.44;5553381;32;33568;-70
2022/12/29 07:15:58;;;;;;;;;;;;;;;-1.45;100.00;101011.03;5567638;32;33962;-69
2022/12/29 07:19:07;;;;;;;;;;;;;;;-1.43;100.00;101008.34;5554620;32;34626;-69
2022/12/29 07:22:15;;;;;;;;;;;;;;;-1.44;100.00;101011.88;5541028;32;33528;-69
2022/12/29 07:25:23;;;;;;;;;;;;;;;-1.33;100.00;101015.63;5567729;32;33899;-69
2022/12/29 07:28:31;;;;;;;;;;;;;;;-1.31;100.00;101018.16;5567727;32;34881;-69
2022/12/29 07:31:40;;;;;;;;;;;;;;;-1.00;100.00;101014.81;5554557;32;34206;-69
2022/12/29 07:34:47;;;;;;;;;;;;;;;-0.99;100.00;101017.38;5552483;32;33884;-69
2022/12/29 07:37:54;;;;;;;;;;;;;;;-0.79;100.00;101016.34;5567678;32;33996;-67
2022/12/29 07:41:03;;;;;;;;;;;;;;;-0.79;100.00;101018.09;5567745;32;34220;-68
2022/12/29 07:44:12;;;;;;;;;;;;;;;-0.73;100.00;101013.41;5566851;32;34489;-68
2022/12/29 07:47:21;;;;;;;;;;;;;;;-0.69;100.00;101012.31;5554230;32;33699;-68
2022/12/29 07:50:29;;;;;;;;;;;;;;;-0.69;100.00;101019.28;5554049;32;34804;-68
2022/12/29 07:53:35;;;;;;;;;;;;;;;-0.82;100.00;101023.47;5567461;32;34805;-68
2022/12/29 07:56:44;;;;;;;;;;;;;;;-0.72;100.00;101024.66;5566473;32;34900;-68
2022/12/29 07:59:51;;;;;;;;;;;;;;;-0.68;100.00;101028.81;5565793;32;34315;-67
2022/12/29 08:02:59;;;;;;;;;;;;;;;-0.74;100.00;101035.16;5567283;32;34336;-68
2022/12/29 08:06:11;;;;;;;;;;;;;;;-0.59;100.00;101030.91;5540546;31;34427;-69
2022/12/29 08:09:19;;;;;;;;;;;;;;;-0.41;100.00;101021.28;5546681;32;33425;-68
2022/12/29 08:12:30;;;;;;;;;;;;;;;-0.39;100.00;101025.50;5547642;32;34254;-69
2022/12/29 08:15:37;;;;;;;;;;;;;;;-0.52;100.00;101027.88;5547349;32;34188;-69
2022/12/29 08:18:45;;;;;;;;;;;;;;;-0.46;100.00;101024.13;5534004;32;32697;-68
2022/12/29 08:21:56;;;;;;;;;;;;;;;-0.54;100.00;101026.31;5547152;32;34834;-68
2022/12/29 08:25:04;;;;;;;;;;;;;;;-0.49;100.00;101021.69;5547322;32;34464;-67
2022/12/29 08:28:09;;;;;;;;;;;;;;;-0.32;100.00;101012.94;5546509;32;34264;-67
2022/12/29 08:31:16;;;;;;;;;;;;;;;-0.30;100.00;101013.72;5546206;32;35678;-69
2022/12/29 08:34:26;;;;;;;;;;;;;;;-0.26;100.00;101016.06;5546443;32;33818;-68
2022/12/29 08:37:35;;;;;;;;;;;;;;;-0.17;100.00;101007.75;5545733;32;34050;-68
2022/12/29 08:40:40;;;;;;;;;;;;;;;-0.15;100.00;101013.72;5546039;32;33058;-68
2022/12/29 08:43:50;;;;;;;;;;;;;;;-0.36;100.00;101001.00;5547040;32;34027;-68
2022/12/29 08:46:57;;;;;;;;;;;;;;;-0.31;100.00;100994.62;5536055;32;34965;-67
2022/12/29 08:50:05;;;;;;;;;;;;;;;-0.41;100.00;100996.03;5548736;32;34185;-69
2022/12/29 08:53:12;;;;;;;;;;;;;;;-0.44;100.00;100991.81;5549303;32;34904;-68
2022/12/29 08:56:21;;;;;;;;;;;;;;;-0.10;100.00;101003.84;5548954;32;34052;-69
2022/12/29 08:59:27;;;;;;;;;;;;;;;0.18;100.00;101002.34;5548114;32;33675;-68
2022/12/29 09:02:36;;;;;;;;;;;;;;;0.28;100.00;101000.91;5549577;32;34137;-69
2022/12/29 09:05:49;;;;;;;;;;;;;;;0.46;100.00;100991.16;5548607;32;34773;-69
2022/12/29 09:08:58;;;;;;;;;;;;;;;0.69;100.00;100998.47;5566359;32;34326;-68
2022/12/29 09:12:02;;;;;;;;;;;;;;;0.58;100.00;100995.69;5554963;32;34162;-68
2022/12/29 09:15:09;;;;;;;;;;;;;;;0.50;100.00;100987.44;5555291;32;34278;-68
2022/12/29 09:18:15;;;;;;;;;;;;;;;0.51;100.00;100984.75;5541882;32;32629;-68
2022/12/29 09:21:25;;;;;;;;;;;;;;;0.58;100.00;100983.44;5555597;32;34909;-69
2022/12/29 09:24:30;;;;;;;;;;;;;;;0.56;100.00;100974.88;5568752;32;34156;-69
2022/12/29 09:27:38;;;;;;;;;;;;;;;0.51;100.00;100971.69;5555256;32;34374;-69
2022/12/29 09:30:45;;;;;;;;;;;;;;;0.40;100.00;100961.03;5542175;32;32860;-69
2022/12/29 09:33:56;;;;;;;;;;;;;;;0.35;100.00;100976.94;5568828;32;34649;-69
2022/12/29 09:37:02;;;;;;;;;;;;;;;0.12;100.00;100961.78;5541694;32;34107;-69
2022/12/29 09:40:17;;;;;;;;;;;;;;;0.28;100.00;100951.31;5568170;32;34235;-69
2022/12/29 09:43:27;;;;;;;;;;;;;;;0.07;100.00;100957.75;5568266;32;34613;-69
2022/12/29 09:46:37;;;;;;;;;;;;;;;0.06;100.00;100948.22;5552898;32;32887;-68
2022/12/29 09:49:45;;;;;;;;;;;;;;;-0.03;100.00;100950.44;5567958;32;34387;-68
2022/12/29 09:53:00;;;;;;;;;;;;;;;0.43;100.00;100955.66;5566118;32;33532;-67
2022/12/29 09:56:17;;;;;;;;;;;;;;;0.69;100.00;100957.56;5567082;32;34753;-69
2022/12/29 09:59:34;;;;;;;;;;;;;;;0.84;100.00;100947.97;5567240;32;35105;-69
2022/12/29 10:02:43;;;;;;;;;;;;;;;0.81;100.00;100951.63;5554289;32;33050;-69
2022/12/29 10:05:54;;;;;;;;;;;;;;;0.59;100.00;100945.13;5568303;32;35445;-69
2022/12/29 10:09:10;;;;;;;;;;;;;;;0.35;100.00;100937.81;5567182;32;34533;-69
2022/12/29 10:12:49;;;;;;;;;;;;;;;0.36;100.00;100931.66;5566858;32;34097;-69
2022/12/29 10:16:00;;;;;;;;;;;;;;;0.67;100.00;100922.03;5535420;31;34703;-68
2022/12/29 10:19:10;;;;;;;;;;;;;;;0.56;100.00;100911.37;5546410;32;33513;-69
2022/12/29 10:22:28;;;;;;;;;;;;;;;0.63;100.00;100925.75;5541377;32;32985;-69
2022/12/29 10:25:39;;;;;;;;;;;;;;;0.59;100.00;100927.69;5554397;32;34438;-69
2022/12/29 10:28:53;;;;;;;;;;;;;;;0.77;100.00;100925.78;5552781;32;34313;-69
2022/12/29 10:32:05;;;;;;;;;;;;;;;0.89;100.00;100925.03;5567894;32;34890;-69
2022/12/29 10:35:21;;;;;;;;;;;;;;;0.86;100.00;100922.59;5567947;32;34798;-69
2022/12/29 10:38:52;;;;;;;;;;;;;;;0.88;100.00;100915.50;5554225;32;34708;-69
2022/12/29 10:42:10;;;;;;;;;;;;;;;0.93;100.00;100916.06;5541338;32;33287;-69
2022/12/29 10:45:19;;;;;;;;;;;;;;;1.15;100.00;100907.75;5552033;32;34283;-69
2022/12/29 10:48:34;;;;;;;;;;;;;;;1.31;100.00;100914.53;5553418;32;32467;-70
2022/12/29 10:51:44;;;;;;;;;;;;;;;1.26;100.00;100902.69;5567537;32;34133;-69
2022/12/29 10:54:51;;;;;;;;;;;;;;;1.31;100.00;100909.31;5552908;32;34696;-68
2022/12/29 10:58:00;;;;;;;;;;;;;;;1.45;100.00;100903.25;5554622;32;32890;-68
2022/12/29 11:01:12;;;;;;;;;;;;;;;1.58;100.00;100898.91;5567097;32;34448;-70
2022/12/29 11:04:39;;;;;;;;;;;;;;;1.55;100.00;100893.03;5567739;32;33805;-69
2022/12/29 11:07:46;;;;;;;;;;;;;;;1.63;100.00;100891.59;5565870;32;33163;-69
2022/12/29 11:11:02;;;;;;;;;;;;;;;1.54;100.00;100878.28;5553388;32;33557;-68
2022/12/29 11:14:13;;;;;;;;;;;;;;;1.71;100.00;100886.69;5553679;32;34157;-70
2022/12/29 11:17:19;;;;;;;;;;;;;;;1.84;100.00;100891.16;5566780;32;34503;-70
2022/12/29 11:20:28;;;;;;;;;;;;;;;1.86;100.00;100895.34;5554278;32;33847;-67
2022/12/29 11:23:42;;;;;;;;;;;;;;;1.74;100.00;100886.50;5553236;32;34825;-70
2022/12/29 11:26:49;;;;;;;;;;;;;;;1.80;100.00;100876.56;5553583;32;34225;-68
2022/12/29 11:29:57;;;;;;;;;;;;;;;2.05;100.00;100885.34;5553241;32;32836;-69
2022/12/29 11:33:06;;;;;;;;;;;;;;;1.95;100.00;100880.81;5567306;32;34903;-69
2022/12/29 11:36:12;;;;;;;;;;;;;;;1.92;100.00;100871.41;5566451;32;33074;-68
2022/12/29 11:39:28;;;;;;;;;;;;;;;1.99;100.00;100856.12;5566511;32;32726;-68
2022/12/29 11:42:42;;;;;;;;;;;;;;;1.96;100.00;100857.16;5567363;32;33363;-69
2022/12/29 11:45:48;;;;;;;;;;;;;;;2.09;100.00;100847.56;5567294;32;34587;-69
2022/12/29 11:48:59;;;;;;;;;;;;;;;2.33;100.00;100854.69;5566898;32;34078;-69
2022/12/29 11:52:07;;;;;;;;;;;;;;;2.23;100.00;100851.06;5553824;32;34203;-69
2022/12/29 11:55:21;;;;;;;;;;;;;;;2.44;100.00;100852.19;5553122;32;33456;-70
2022/12/29 11:58:32;;;;;;;;;;;;;;;2.56;100.00;100854.00;5553614;32;34912;-69
2022/12/29 12:01:39;;;;;;;;;;;;;;;2.62;100.00;100861.41;5566113;32;34807;-69
2022/12/29 12:04:45;;;;;;;;;;;;;;;2.80;100.00;100857.53;5566845;32;34466;-69
2022/12/29 12:08:02;;;;;;;;;;;;;;;2.99;100.00;100857.09;5563360;32;33031;-69
2022/12/29 12:11:12;;;;;;;;;;;;;;;2.92;100.00;100859.28;5553451;32;34956;-69
2022/12/29 12:14:31;;;;;;;;;;;;;;;3.39;100.00;100868.19;5552440;32;33439;-69
2022/12/29 12:17:51;;;;;;;;;;;;;;;2.96;100.00;100855.50;5566942;32;33937;-69
2022/12/29 12:21:04;;;;;;;;;;;;;;;2.93;100.00;100853.13;5566292;32;34829;-71
2022/12/29 12:24:10;;;;;;;;;;;;;;;2.91;100.00;100843.66;5566720;32;34183;-69
2022/12/29 12:27:25;;;;;;;;;;;;;;;3.39;100.00;100827.06;5565264;32;32648;-69
2022/12/29 12:30:36;;;;;;;;;;;;;;;3.23;100.00;100823.06;5540463;32;32966;-68
2022/12/29 12:33:45;;;;;;;;;;;;;;;3.15;100.00;100809.66;5565324;32;34573;-69
2022/12/29 12:36:56;;;;;;;;;;;;;;;3.23;100.00;100792.44;5566358;32;34760;-69
2022/12/29 12:40:20;;;;;;;;;;;;;;;3.56;100.00;100809.28;5566355;32;34065;-68
2022/12/29 12:43:29;;;;;;;;;;;;;;;3.04;100.00;100795.53;5558392;32;34123;-68
2022/12/29 12:46:39;;;;;;;;;;;;;;;3.14;100.00;100782.63;5565625;32;34727;-69
2022/12/29 12:50:08;;;;;;;;;;;;;;;3.41;100.00;100790.25;5565984;32;33827;-69
2022/12/29 12:53:15;;;;;;;;;;;;;;;3.21;100.00;100788.22;5565911;31;34572;-68
2022/12/29 12:56:44;;;;;;;;;;;;;;;3.47;100.00;100789.81;5565666;32;34603;-68
2022/12/29 13:00:04;;;;;;;;;;;;;;;3.49;100.00;100795.75;5565682;32;34907;-69
2022/12/29 13:03:38;;;;;;;;;;;;;;;3.07;100.00;100783.97;5551611;32;34553;-68
2022/12/29 13:06:47;;;;;;;;;;;;;;;2.90;100.00;100787.81;5498076;32;34198;-69
2022/12/29 13:10:03;;;;;;;;;;;;;;;3.04;100.00;100798.16;5564025;32;34358;-69
2022/12/29 13:13:23;;;;;;;;;;;;;;;2.89;100.00;100798.41;5565071;32;34455;-68
2022/12/29 13:16:31;;;;;;;;;;;;;;;2.82;100.00;100792.75;5551902;32;32759;-68
2022/12/29 13:19:44;;;;;;;;;;;;;;;2.84;100.00;100795.28;5565088;32;34787;-69
2022/12/29 13:22:51;;;;;;;;;;;;;;;2.86;100.00;100791.59;5559326;32;34738;-68
2022/12/29 13:26:11;;;;;;;;;;;;;;;2.85;100.00;100800.41;5552157;32;35538;-67
2022/12/29 13:29:27;;;;;;;;;;;;;;;2.95;100.00;100801.41;5552378;32;34670;-67
2022/12/29 13:32:37;;;;;;;;;;;;;;;2.81;100.00;100800.75;5553345;32;33932;-67
2022/12/29 13:35:48;;;;;;;;;;;;;;;2.89;100.00;100807.09;5552348;32;34107;-68
2022/12/29 13:38:58;;;;;;;;;;;;;;;2.95;100.00;100809.28;5568401;32;34734;-68
2022/12/29 13:42:04;;;;;;;;;;;;;;;2.83;100.00;100806.69;5568481;32;35036;-67
2022/12/29 13:45:14;;;;;;;;;;;;;;;2.74;100.00;100812.59;5554703;32;34048;-68
2022/12/29 13:48:23;;;;;;;;;;;;;;;2.67;100.00;100812.16;5568171;32;34924;-69
2022/12/29 13:51:31;;;;;;;;;;;;;;;2.67;100.00;100806.09;5566962;32;34421;-69
2022/12/29 13:54:36;;;;;;;;;;;;;;;2.62;100.00;100806.41;5568421;32;34289;-68
2022/12/29 13:57:49;;;;;;;;;;;;;;;2.65;100.00;100811.44;5568218;32;34620;-69
2022/12/29 14:00:58;;;;;;;;;;;;;;;2.75;100.00;100814.25;5568350;32;34204;-68
2022/12/29 14:04:10;;;;;;;;;;;;;;;2.87;100.00;100821.25;5568252;32;34535;-68
2022/12/29 14:07:18;;;;;;;;;;;;;;;2.83;100.00;100815.41;5567930;32;34007;-68
2022/12/29 14:10:37;;;;;;;;;;;;;;;2.79;100.00;100836.69;5561957;32;32864;-69
2022/12/29 14:13:46;;;;;;;;;;;;;;;2.71;100.00;100829.34;5541291;32;32497;-68
2022/12/29 14:16:52;;;;;;;;;;;;;;;2.65;100.00;100826.31;5554379;32;34467;-69
2022/12/29 14:19:59;;;;;;;;;;;;;;;2.40;100.00;100817.53;5552606;32;32698;-68
2022/12/29 14:23:09;;;;;;;;;;;;;;;2.26;100.00;100825.50;5567486;32;34295;-68
2022/12/29 14:26:30;;;;;;;;;;;;;;;2.15;100.00;100815.75;5553794;32;33255;-68
2022/12/29 14:29:40;;;;;;;;;;;;;;;2.15;100.00;100809.66;5541268;32;33089;-71
2022/12/29 14:33:04;;;;;;;;;;;;;;;2.05;100.00;100819.91;5553810;32;32925;-69
2022/12/29 14:36:19;;;;;;;;;;;;;;;1.88;100.00;100803.69;5567504;32;34240;-68
2022/12/29 14:39:27;;;;;;;;;;;;;;;1.80;100.00;100814.62;5553775;32;33966;-68
2022/12/29 14:42:37;;;;;;;;;;;;;;;1.76;100.00;100818.41;5553718;32;33072;-68
2022/12/29 14:45:51;;;;;;;;;;;;;;;1.74;100.00;100820.28;5568108;32;34565;-69
2022/12/29 14:48:58;;;;;;;;;;;;;;;1.68;100.00;100829.38;5554237;32;35472;-68
2022/12/29 14:52:08;;;;;;;;;;;;;;;1.57;100.00;100817.94;5554660;32;34924;-68
2022/12/29 14:55:15;;;;;;;;;;;;;;;1.37;100.00;100827.06;5567768;32;34290;-68
2022/12/29 14:58:28;;;;;;;;;;;;;;;1.39;100.00;100832.19;5553465;32;33629;-68
2022/12/29 15:01:40;;;;;;;;;;;;;;;1.24;100.00;100824.41;5567821;32;34311;-68
2022/12/29 15:04:48;;;;;;;;;;;;;;;1.23;100.00;100822.72;5541223;32;32560;-68
2022/12/29 15:07:58;;;;;;;;;;;;;;;1.11;100.00;100830.50;5541215;32;33626;-68
2022/12/29 15:11:12;;;;;;;;;;;;;;;1.16;100.00;100829.25;5552677;32;34260;-68
2022/12/29 15:14:32;;;;;;;;;;;;;;;1.27;100.00;100836.41;5553316;32;32628;-68
2022/12/29 15:17:40;;;;;;;;;;;;;;;1.23;100.00;100850.63;5553455;32;35172;-69
2022/12/29 15:20:45;;;;;;;;;;;;;;;1.29;100.00;100858.09;5541127;32;33798;-68
2022/12/29 15:23:52;;;;;;;;;;;;;;;1.16;100.00;100852.75;5553292;32;34877;-68
2022/12/29 15:27:03;;;;;;;;;;;;;;;0.92;100.00;100850.87;5553722;32;34404;-68
2022/12/29 15:30:12;;;;;;;;;;;;;;;1.03;100.00;100844.03;5552217;32;34571;-68
2022/12/29 15:33:23;;;;;;;;;;;;;;;0.85;100.00;100851.25;5553258;31;35083;-68
2022/12/29 15:36:29;;;;;;;;;;;;;;;0.58;100.00;100852.09;5553354;32;34733;-68
2022/12/29 15:39:35;;;;;;;;;;;;;;;0.55;100.00;100849.66;5567368;32;34452;-67
2022/12/29 15:42:45;;;;;;;;;;;;;;;0.51;100.00;100843.78;5553632;32;33312;-69
2022/12/29 15:45:52;;;;;;;;;;;;;;;0.36;100.00;100849.91;5553360;32;32735;-69
2022/12/29 15:48:57;;;;;;;;;;;;;;;0.24;100.00;100854.09;5553218;32;34344;-68
2022/12/29 15:52:07;;;;;;;;;;;;;;;0.19;100.00;100856.16;5566809;32;33970;-68
2022/12/29 15:55:26;;;;;;;;;;;;;;;0.12;100.00;100848.75;5566317;32;33612;-68
2022/12/29 15:58:30;;;;;;;;;;;;;;;0.11;100.00;100853.13;5565325;32;34262;-68
2022/12/29 16:01:36;;;;;;;;;;;;;;;0.10;100.00;100861.88;5552524;32;33898;-68
2022/12/29 16:04:42;;;;;;;;;;;;;;;0.11;100.00;100857.50;5553433;32;33237;-68
2022/12/29 16:08:27;;;;;;;;;;;;;;;-0.05;100.00;100857.59;5546216;32;33026;-67
2022/12/29 16:11:36;;;;;;;;;;;;;;;0.02;100.00;100858.03;5548178;32;35688;-67
2022/12/29 16:14:44;;;;;;;;;;;;;;;-0.04;100.00;100849.66;5553952;32;34695;-68
2022/12/29 16:17:52;;;;;;;;;;;;;;;-0.01;100.00;100846.87;5544838;32;33870;-69
2022/12/29 16:20:58;;;;;;;;;;;;;;;0.12;100.00;100843.53;5562804;32;34365;-68
2022/12/29 16:24:13;;;;;;;;;;;;;;;-0.08;100.00;100855.97;5566948;32;33890;-68
2022/12/29 16:27:40;;;;;;;;;;;;;;;-0.08;100.00;100849.91;5566739;32;34216;-68
2022/12/29 16:30:57;;;;;;;;;;;;;;;-0.13;100.00;100849.34;5566411;32;34105;-68
2022/12/29 16:34:22;;;;;;;;;;;;;;;-0.18;100.00;100853.97;5566627;32;34023;-68
2022/12/29 16:37:30;;;;;;;;;;;;;;;-0.33;100.00;100858.31;5552983;32;33860;-68
2022/12/29 16:40:40;;;;;;;;;;;;;;;-0.46;100.00;100859.94;5565511;32;32984;-68
2022/12/29 16:44:08;;;;;;;;;;;;;;;-0.48;100.00;100870.44;5557932;32;34697;-68